Wednesday, October 18, 2017, 5:57 PM EDT
Back to Local

KBKL, Cleveland Burke Lakefront

Location: Cleveland, OH, United States Lat: 41.533
Local Time: 5:57 PM EDT (21:57 GMT) Lon: -81.667
Time Zone: US/Eastern Elev: 583 ft

Show me the last for .
Show Decoded

2017-10-18 16:53 METAR KBKL 182053Z 18011KT 10SM CLR 21/03 A3018 RMK AO2 SLP218 T02110033 56019 =
2017-10-18 15:53 METAR KBKL 181953Z 18015KT 10SM CLR 22/03 A3019 RMK AO2 SLP221 T02170028 =
2017-10-18 14:53 METAR KBKL 181853Z 19014KT 10SM CLR 21/03 A3020 RMK AO2 SLP226 T02110028 =
2017-10-18 13:53 METAR KBKL 181753Z 17011KT 10SM CLR 21/04 A3023 RMK AO2 SLP237 T02060044 10206
                 20100 58023 =
2017-10-18 12:53 METAR KBKL 181653Z 19013KT 10SM CLR 19/05 A3027 RMK AO2 SLP250 T01940050 =
2017-10-18 11:53 METAR KBKL 181553Z 18010KT 10SM CLR 18/06 A3029 RMK AO2 SLP257 T01830056 =
2017-10-18 10:53 METAR KBKL 181453Z 17009KT 10SM CLR 16/06 A3030 RMK AO2 SLP261 T01610056 50006 $
                 =
2017-10-18 09:53 METAR KBKL 181353Z 15007KT 10SM CLR 13/05 A3030 RMK AO2 SLP262 T01330050 $ =
2017-10-18 08:53 METAR KBKL 181253Z 16008KT 10SM CLR 11/04 A3030 RMK AO2 SLP262 T01110044 $ =
2017-10-18 07:53 METAR KBKL 181153Z 15007KT 10SM CLR 10/04 A3029 RMK AO2 SLP256 T01000039 10128
                 20094 51009 $ =
2017-10-18 06:53 METAR KBKL 181053Z 15006KT 10SM CLR 09/04 A3028 RMK AO2 SLP255 T00940039 $ =
2017-10-18 05:53 METAR KBKL 180953Z 16009KT 10SM CLR 11/04 A3027 RMK AO2 SLP251 T01060039 $ =
2017-10-18 04:53 METAR KBKL 180853Z 17007KT 10SM CLR 11/04 A3026 RMK AO2 SLP246 T01110039 53004 $
                 =
2017-10-18 03:53 METAR KBKL 180753Z 16009KT 10SM CLR 11/04 A3024 RMK AO2 SLP240 T01110039 $ =
2017-10-18 02:53 METAR KBKL 180653Z 18007KT 10SM CLR 12/04 A3025 RMK AO2 SLP243 T01170039 $ =
2017-10-18 01:53 METAR KBKL 180553Z 19007KT 10SM CLR 13/03 A3025 RMK AO2 SLP242 T01280033 10167
                 20128 51005 $ =
2017-10-18 00:53 METAR KBKL 180453Z 18008KT 10SM CLR 13/03 A3024 RMK AO2 SLP241 T01330028
                 401940067 $ =
2017-10-17 23:53 METAR KBKL 180353Z 21013KT 10SM CLR 15/03 A3024 RMK AO2 PK WND 21026/0329 SLP240
                 T01500028 $ =
2017-10-17 22:53 METAR KBKL 180253Z 21015KT 10SM CLR 16/02 A3023 RMK AO2 SLP238 T01560022 53013 $
                 =
2017-10-17 21:53 METAR KBKL 180153Z 19011KT 10SM CLR 16/03 A3022 RMK AO2 SLP233 T01560028 $ =
2017-10-17 20:53 METAR KBKL 180053Z 18011KT 10SM CLR 16/03 A3020 RMK AO2 SLP229 T01610028 $ =
2017-10-17 19:53 METAR KBKL 172353Z 19010KT 10SM CLR 17/03 A3019 RMK AO2 SLP226 T01670028 10194
                 20161 53003 $ =
2017-10-17 18:53 METAR KBKL 172253Z 20009KT 10SM CLR 18/03 A3018 RMK AO2 PK WND 17030/2226 SLP221
                 T01780028 $ =

Support USWX by starting your Amazon purchase here.